Springbrook, Wisconsin
Current Conditions -  °F | °C
As of 5:53 PM on Sunday 23 Nov 2014 (Local Time) from KHYR Reporting Station
Moderate Fog Moderate Fog  
Wind Chill: 40°   Ceiling: 300
Heat Index: 40°   Visibility: 0.5mi
Dew Point: 38°   Wind: 3mph
Humidity: 93%   Direction: 30°NNE
Pressure: 29.35"   Gusts: NA
Location:  45.95°N, 91.69°W
Report Text: KHYR 232353Z AUTO 03003KT 1/2SM FG VV003 04/03 A2935 RMK AO2 RAB30E48 SLP946 P0001 60002 T00440033 10072 20033 58007
Loading
Personal Weather Stations






























Interactive Weather Map New forecast layout! Learn more

10-Day Weather Forecast

Advertisements
Track Severe Weather on mobile